Time;durP1;ratioP1;P1;durP2;ratioP2;P2;SDS_P1;SDS_P2;PMS_P1;PMS_P2;Temp;Humidity;BMP_temperature;BMP_pressure;BME280_temperature;BME280_humidity;BME280_pressure;Samples;Min_cycle;Max_cycle;Signal;HPM_P1;HPM_P2
2022/10/13 00:01:51;;;;;;;27.85;11.88;;;10.20;99.90;;;;;;5158996;27;20102;-78
2022/10/13 00:04:17;;;;;;;20.10;11.68;;;10.00;99.90;;;;;;5158975;27;20042;-78
2022/10/13 00:06:42;;;;;;;22.60;12.82;;;10.10;99.90;;;;;;5177934;27;20030;-80
2022/10/13 00:09:08;;;;;;;23.60;13.60;;;10.20;99.90;;;;;;5177516;27;20497;-80
2022/10/13 00:11:34;;;;;;;20.30;11.73;;;;;;;;;;5158814;27;20074;-81
2022/10/13 00:14:01;;;;;;;18.80;12.50;;;10.20;99.90;;;;;;5178019;27;20049;-80
2022/10/13 00:16:27;;;;;;;23.85;12.82;;;;;;;;;;5158936;27;20051;-81
2022/10/13 00:18:53;;;;;;;23.17;12.30;;;;;;;;;;5158697;27;20038;-77
2022/10/13 00:21:23;;;;;;;20.88;12.88;;;10.10;99.90;;;;;;5158451;27;20401;-78
2022/10/13 00:23:50;;;;;;;23.27;12.18;;;10.10;99.90;;;;;;5157807;27;20122;-80
2022/10/13 00:26:16;;;;;;;27.98;13.50;;;10.30;99.90;;;;;;5177864;27;20057;-89
2022/10/13 00:28:43;;;;;;;23.63;12.65;;;;;;;;;;5177948;27;20030;-88
2022/10/13 00:31:24;;;;;;;21.25;12.30;;;10.30;99.90;;;;;;5158799;27;20061;-87
2022/10/13 00:33:51;;;;;;;20.58;12.88;;;;;;;;;;5158712;27;20038;-90
2022/10/13 00:36:18;;;;;;;20.42;12.15;;;;;;;;;;5177356;27;20050;-90
2022/10/13 00:38:44;;;;;;;20.80;12.50;;;;;;;;;;5158776;27;20423;-89
2022/10/13 00:41:10;;;;;;;22.38;13.18;;;;;;;;;;5176798;27;20383;-90
2022/10/13 00:43:54;;;;;;;21.75;13.00;;;10.10;99.90;;;;;;5177016;27;20085;-89
2022/10/13 00:46:26;;;;;;;27.42;13.65;;;10.20;99.90;;;;;;5177275;27;20050;-85
2022/10/13 00:48:52;;;;;;;20.65;12.75;;;;;;;;;;5158198;27;20034;-82
2022/10/13 00:51:22;;;;;;;24.27;12.95;;;10.30;99.90;;;;;;5177652;27;20049;-82
2022/10/13 00:53:48;;;;;;;22.88;14.20;;;;;;;;;;5158007;27;20044;-89
2022/10/13 00:56:17;;;;;;;26.27;13.80;;;10.10;99.90;;;;;;5158131;27;20512;-89
2022/10/13 00:58:44;;;;;;;30.35;14.60;;;10.40;99.90;;;;;;5140854;27;20125;-86
2022/10/13 01:01:10;;;;;;;17.73;13.15;;;;;;;;;;5158264;27;20125;-85
2022/10/13 01:03:36;;;;;;;22.33;12.77;;;;;;;;;;5140667;27;20046;-76
2022/10/13 01:06:04;;;;;;;22.65;13.90;;;10.30;99.90;;;;;;5157776;27;20151;-77
2022/10/13 01:08:30;;;;;;;31.38;14.00;;;10.40;99.90;;;;;;5140427;27;20053;-78
2022/10/13 01:10:56;;;;;;;25.45;15.05;;;;;;;;;;5140490;27;20090;-77
2022/10/13 01:13:52;;;;;;;24.05;14.10;;;10.10;99.90;;;;;;5140340;27;20050;-79
2022/10/13 01:16:33;;;;;;;33.75;13.25;;;10.30;99.90;;;;;;5140344;27;20038;-78
2022/10/13 01:19:48;;;;;;;27.42;14.18;;;10.30;99.90;;;;;;5157616;27;20167;-82
2022/10/13 01:22:43;;;;;;;23.90;12.88;;;10.30;99.90;;;;;;5037239;28;20144;-81
2022/10/13 01:25:22;;;;;;;30.85;14.35;;;10.30;99.90;;;;;;5037980;28;20063;-81
2022/10/13 01:28:31;;;;;;;24.90;13.55;;;10.00;99.90;;;;;;5054954;28;20053;-79
2022/10/13 01:31:28;;;;;;;30.77;14.85;;;10.10;99.90;;;;;;5038209;28;20497;-82
2022/10/13 01:34:20;;;;;;;23.10;13.63;;;10.30;99.90;;;;;;5054318;28;20083;-81
2022/10/13 01:37:17;;;;;;;24.17;14.50;;;10.10;99.90;;;;;;5054655;28;20064;-80
2022/10/13 01:39:52;;;;;;;28.52;14.00;;;10.10;99.90;;;;;;5054470;28;20143;-81
2022/10/13 01:42:24;;;;;;;22.42;13.40;;;10.30;99.90;;;;;;5054247;28;20513;-82
2022/10/13 01:44:57;;;;;;;21.35;12.25;;;10.30;99.90;;;;;;5054487;28;20085;-89
2022/10/13 01:47:25;;;;;;;23.60;13.80;;;10.20;99.90;;;;;;5055013;28;20429;-86
2022/10/13 01:49:53;;;;;;;22.45;14.25;;;10.20;99.90;;;;;;5054636;28;20400;-79
2022/10/13 01:52:22;;;;;;;25.83;12.90;;;10.20;99.90;;;;;;5054602;28;20092;-84
2022/10/13 01:54:49;;;;;;;19.27;13.68;;;;;;;;;;5054101;28;20047;-85
2022/10/13 01:57:37;;;;;;;24.77;13.95;;;10.20;99.90;;;;;;5037729;28;20099;-88
2022/10/13 02:00:09;;;;;;;25.33;14.70;;;10.30;99.90;;;;;;5140475;27;20050;-85
2022/10/13 02:02:48;;;;;;;26.40;13.85;;;10.40;99.90;;;;;;5158085;27;20042;-84
2022/10/13 02:05:26;;;;;;;23.83;13.02;;;10.30;99.90;;;;;;5139950;27;20125;-88
2022/10/13 02:08:08;;;;;;;25.40;13.48;;;10.20;99.90;;;;;;5157443;27;20375;-89
2022/10/13 02:10:41;;;;;;;25.90;13.68;;;10.30;99.90;;;;;;5157017;27;20046;-89
2022/10/13 02:13:10;;;;;;;21.30;13.43;;;10.40;99.90;;;;;;5156949;27;20044;-89
2022/10/13 02:15:44;;;;;;;28.75;14.40;;;10.20;99.90;;;;;;5157356;27;20046;-90
2022/10/13 02:18:13;;;;;;;23.75;14.13;;;10.10;99.90;;;;;;5156869;27;20095;-80
2022/10/13 02:20:41;;;;;;;22.73;14.40;;;10.10;99.90;;;;;;5139679;27;20046;-77
2022/10/13 02:23:11;;;;;;;27.45;13.50;;;10.30;99.90;;;;;;5139713;27;20465;-81
2022/10/13 02:25:38;;;;;;;26.48;13.35;;;;;;;;;;5156937;27;20130;-80
2022/10/13 02:28:04;;;;;;;21.05;13.23;;;10.30;99.90;;;;;;5156831;27;20121;-80
2022/10/13 02:30:32;;;;;;;23.45;14.18;;;10.10;99.90;;;;;;5139739;27;20518;-79
2022/10/13 02:32:58;;;;;;;25.95;13.98;;;;;;;;;;5156798;27;20042;-82
2022/10/13 02:35:24;;;;;;;15.82;12.50;;;;;;;;;;5156746;27;20045;-82
2022/10/13 02:37:50;;;;;;;27.02;14.00;;;;;;;;;;5139495;27;20050;-81
2022/10/13 02:40:16;;;;;;;25.40;14.20;;;;;;;;;;5156949;27;20042;-82
2022/10/13 02:42:42;;;;;;;21.08;13.20;;;;;;;;;;5157052;27;20201;-79
2022/10/13 02:45:09;;;;;;;21.33;13.63;;;10.40;99.90;;;;;;5156731;27;20058;-81
2022/10/13 02:47:35;;;;;;;28.98;13.68;;;;;;;;;;5143239;27;20045;-79
2022/10/13 02:50:01;;;;;;;23.17;13.98;;;;;;;;;;5160475;27;20486;-76
2022/10/13 02:52:27;;;;;;;25.35;14.07;;;;;;;;;;5160488;27;20087;-77
2022/10/13 02:54:53;;;;;;;20.77;13.32;;;;;;;;;;5160653;27;20042;-79
2022/10/13 02:57:19;;;;;;;21.48;13.18;;;10.30;99.90;;;;;;5142994;27;20084;-81
2022/10/13 02:59:45;;;;;;;27.45;14.40;;;;;;;;;;5160314;27;20050;-79
2022/10/13 03:02:10;;;;;;;20.05;12.43;;;10.20;99.90;;;;;;5160204;27;20046;-79
2022/10/13 03:04:36;;;;;;;19.67;13.20;;;10.30;99.90;;;;;;5143232;27;20114;-82
2022/10/13 03:07:02;;;;;;;28.08;14.02;;;10.30;99.90;;;;;;5160112;27;20042;-81
2022/10/13 03:09:27;;;;;;;22.27;13.43;;;9.90;99.90;;;;;;5142887;27;20042;-79
2022/10/13 03:11:53;;;;;;;25.95;12.55;;;10.40;99.90;;;;;;5178769;27;20053;-79
2022/10/13 03:14:19;;;;;;;21.90;14.25;;;;;;;;;;5178593;27;20045;-78
2022/10/13 03:16:46;;;;;;;25.95;13.05;;;;;;;;;;5160027;27;20129;-77
2022/10/13 03:19:12;;;;;;;27.30;13.85;;;;;;;;;;5159939;27;20121;-78
2022/10/13 03:21:38;;;;;;;25.10;13.52;;;10.20;99.90;;;;;;5160235;27;20042;-75
2022/10/13 03:24:04;;;;;;;23.00;14.30;;;;;;;;;;5142615;27;20057;-88
2022/10/13 03:26:31;;;;;;;23.55;12.88;;;;;;;;;;5142373;27;20494;-85
2022/10/13 03:28:57;;;;;;;30.67;14.35;;;;;;;;;;5160048;27;20053;-80
2022/10/13 03:31:23;;;;;;;25.75;13.63;;;;;;;;;;5142457;27;20042;-88
2022/10/13 03:33:49;;;;;;;27.75;13.55;;;;;;;;;;5159784;27;20132;-88
2022/10/13 03:36:15;;;;;;;25.80;12.95;;;;;;;;;;5142391;27;20038;-88
2022/10/13 03:38:41;;;;;;;23.70;14.85;;;;;;;;;;5159576;27;20049;-88
2022/10/13 03:41:13;;;;;;;25.52;15.38;;;10.30;99.90;;;;;;5159511;27;20045;-87
2022/10/13 03:43:40;;;;;;;27.13;14.50;;;10.40;99.90;;;;;;5159309;27;20098;-85
2022/10/13 03:46:06;;;;;;;26.25;14.75;;;10.30;99.90;;;;;;5159703;27;20448;-85
2022/10/13 03:48:33;;;;;;;27.52;14.52;;;10.30;99.90;;;;;;5142111;27;20094;-86
2022/10/13 03:51:02;;;;;;;28.95;15.23;;;10.20;99.90;;;;;;5142170;27;20045;-87
2022/10/13 03:53:28;;;;;;;23.92;14.50;;;10.30;99.90;;;;;;5159287;27;20050;-85
2022/10/13 03:55:54;;;;;;;25.42;14.70;;;10.40;99.90;;;;;;5178433;27;20053;-88
2022/10/13 03:58:22;;;;;;;21.38;14.77;;;10.40;99.90;;;;;;5141738;27;20044;-85
2022/10/13 04:00:49;;;;;;;25.65;14.95;;;;;;;;;;5159084;27;20057;-84
2022/10/13 04:03:15;;;;;;;36.92;15.45;;;10.20;99.90;;;;;;5159017;27;20083;-87
2022/10/13 04:05:41;;;;;;;32.53;16.75;;;;;;;;;;5141659;27;20042;-76
2022/10/13 04:08:07;;;;;;;27.27;15.48;;;;;;;;;;5141875;27;20046;-77
2022/10/13 04:10:34;;;;;;;26.23;14.85;;;;;;;;;;5159176;27;20390;-81
2022/10/13 04:13:00;;;;;;;30.13;16.20;;;;;;;;;;5158744;27;20067;-79
2022/10/13 04:15:26;;;;;;;26.17;15.35;;;;;;;;;;5158840;27;20050;-83
2022/10/13 04:17:52;;;;;;;23.00;16.40;;;;;;;;;;5158767;27;20070;-83
2022/10/13 04:20:18;;;;;;;25.70;17.27;;;;;;;;;;5158790;27;20038;-83
2022/10/13 04:22:44;;;;;;;26.88;15.15;;;;;;;;;;5158883;27;20038;-82
2022/10/13 04:25:10;;;;;;;25.38;16.73;;;;;;;;;;5141583;27;20489;-77
2022/10/13 04:27:38;;;;;;;30.65;16.95;;;;;;;;;;5158529;27;20137;-76
2022/10/13 04:30:05;;;;;;;26.15;16.75;;;10.40;99.90;;;;;;5141252;27;20071;-78
2022/10/13 04:32:31;;;;;;;27.30;15.75;;;;;;;;;;5177424;27;20093;-76
2022/10/13 04:34:57;;;;;;;27.40;16.73;;;;;;;;;;5177256;27;20046;-83
2022/10/13 04:37:23;;;;;;;29.58;18.00;;;;;;;;;;5158490;27;20052;-76
2022/10/13 04:39:49;;;;;;;35.22;16.80;;;;;;;;;;5176844;27;20398;-83
2022/10/13 04:42:16;;;;;;;26.20;17.38;;;;;;;;;;5176828;27;20041;-82
2022/10/13 04:44:42;;;;;;;23.48;16.25;;;;;;;;;;5158011;27;20050;-81
2022/10/13 04:47:08;;;;;;;32.00;16.83;;;;;;;;;;5177016;27;20113;-80
2022/10/13 04:49:34;;;;;;;31.23;17.83;;;;;;;;;;5177405;27;20044;-81
2022/10/13 04:52:00;;;;;;;26.00;18.45;;;;;;;;;;5158269;27;20077;-79
2022/10/13 04:54:26;;;;;;;29.42;18.27;;;;;;;;;;5157978;27;20490;-82
2022/10/13 04:56:52;;;;;;;29.10;18.25;;;;;;;;;;5158281;27;20474;-82
2022/10/13 04:59:18;;;;;;;30.02;16.92;;;;;;;;;;5158500;27;20091;-82
2022/10/13 05:01:44;;;;;;;29.65;17.80;;;;;;;;;;5158152;27;20106;-84
2022/10/13 05:04:10;;;;;;;28.02;18.10;;;;;;;;;;5140618;27;20038;-82
2022/10/13 05:06:39;;;;;;;30.00;16.35;;;10.20;99.90;;;;;;5140805;27;20039;-79
2022/10/13 05:09:05;;;;;;;25.10;16.83;;;;;;;;;;5141159;27;20472;-80
2022/10/13 05:11:31;;;;;;;39.10;16.95;;;;;;;;;;5176197;27;20490;-85
2022/10/13 05:13:57;;;;;;;27.85;17.88;;;;;;;;;;5157941;27;20057;-87
2022/10/13 05:16:23;;;;;;;35.55;18.38;;;;;;;;;;5176585;27;20042;-85
2022/10/13 05:18:51;;;;;;;30.63;19.00;;;10.40;99.90;;;;;;5176563;27;20079;-87
2022/10/13 05:21:19;;;;;;;25.83;18.15;;;10.50;99.90;;;;;;5158239;27;20050;-84
2022/10/13 05:23:46;;;;;;;34.33;18.42;;;;;;;;;;5157616;27;20042;-86
2022/10/13 05:26:14;;;;;;;29.25;18.08;;;10.30;99.90;;;;;;5157430;27;20042;-86
2022/10/13 05:28:40;;;;;;;31.55;18.83;;;;;;;;;;5176358;27;20038;-87
2022/10/13 05:31:10;;;;;;;31.23;19.60;;;;;;;;;;5176380;27;20049;-88
2022/10/13 05:33:36;;;;;;;29.65;18.42;;;;;;;;;;5157541;27;20073;-83
2022/10/13 05:36:07;;;;;;;32.58;18.98;;;10.30;99.90;;;;;;5176563;27;20034;-77
2022/10/13 05:38:33;;;;;;;33.00;20.27;;;10.40;99.90;;;;;;5157310;27;20042;-78
2022/10/13 05:41:07;;;;;;;26.60;18.38;;;10.30;99.90;;;;;;5176297;27;20046;-81
2022/10/13 05:43:32;;;;;;;;;;;10.60;99.90;;;;;;5157439;27;20050;-77
2022/10/13 05:45:59;;;;;;;29.50;19.05;;;10.50;99.90;;;;;;5157527;27;19925;-80
2022/10/13 05:48:25;;;;;;;34.05;19.85;;;;;;;;;;5157131;27;20049;-80
2022/10/13 05:50:52;;;;;;;31.52;19.15;;;;;;;;;;5157178;27;20046;-80
2022/10/13 05:53:18;;;;;;;27.65;18.92;;;;;;;;;;5157532;27;20098;-81
2022/10/13 05:55:44;;;;;;;34.72;18.85;;;;;;;;;;5157170;27;20054;-82
2022/10/13 05:58:10;;;;;;;36.00;20.85;;;;;;;;;;5140130;27;20082;-82
2022/10/13 06:00:36;;;;;;;30.45;18.38;;;;;;;;;;5157037;27;20046;-79
2022/10/13 06:03:16;;;;;;;29.58;19.63;;;10.50;99.90;;;;;;5157183;27;20042;-79
2022/10/13 06:05:46;;;;;;;33.58;20.27;;;10.40;99.90;;;;;;5156905;27;20113;-81
2022/10/13 06:08:12;;;;;;;37.13;20.02;;;;;;;;;;5139397;27;20046;-77
2022/10/13 06:10:38;;;;;;;33.65;20.50;;;;;;;;;;5156655;27;20046;-83
2022/10/13 06:13:04;;;;;;;30.48;19.73;;;;;;;;;;5139643;27;20042;-79
2022/10/13 06:15:30;;;;;;;34.65;20.77;;;;;;;;;;5156992;27;20042;-82
2022/10/13 06:17:56;;;;;;;37.22;21.30;;;;;;;;;;5156862;27;20047;-81
2022/10/13 06:20:22;;;;;;;34.30;20.13;;;;;;;;;;5159292;27;20049;-81
2022/10/13 06:22:49;;;;;;;36.00;21.30;;;;;;;;;;5179544;27;20038;-82
2022/10/13 06:25:16;;;;;;;34.00;21.60;;;;;;;;;;5160968;27;20053;-83
2022/10/13 06:27:42;;;;;;;40.55;23.77;;;;;;;;;;5161037;27;20046;-80
2022/10/13 06:30:08;;;;;;;39.13;22.23;;;;;;;;;;5179429;27;20102;-82
2022/10/13 06:32:34;;;;;;;39.20;20.15;;;;;;;;;;5179787;27;20050;-81
2022/10/13 06:35:00;;;;;;;36.58;20.58;;;10.60;99.90;;;;;;5161006;27;20394;-78
2022/10/13 06:37:26;;;;;;;37.03;22.42;;;;;;;;;;5179637;27;20053;-79
2022/10/13 06:39:52;;;;;;;41.72;22.20;;;;;;;;;;5179646;27;20442;-82
2022/10/13 06:42:18;;;;;;;40.33;22.92;;;;;;;;;;5160387;27;20061;-83
2022/10/13 06:44:44;;;;;;;39.28;22.67;;;;;;;;;;5160539;27;20050;-80
2022/10/13 06:47:10;;;;;;;37.03;22.23;;;10.70;99.90;;;;;;5143503;27;20072;-81
2022/10/13 06:49:36;;;;;;;39.15;22.85;;;;;;;;;;5160533;27;20549;-80
2022/10/13 06:52:03;;;;;;;37.33;22.02;;;10.70;99.90;;;;;;5179126;27;20522;-79
2022/10/13 06:54:29;;;;;;;34.60;22.20;;;;;;;;;;5160291;27;20390;-83
2022/10/13 06:56:55;;;;;;;32.90;21.00;;;;;;;;;;5179288;27;20050;-83
2022/10/13 06:59:21;;;;;;;36.15;21.25;;;;;;;;;;5160521;27;20073;-83
2022/10/13 07:01:48;;;;;;;28.95;20.25;;;11.00;99.90;;;;;;5142943;27;20049;-81
2022/10/13 07:04:14;;;;;;;35.20;21.92;;;;;;;;;;5179125;27;20046;-84
2022/10/13 07:06:40;;;;;;;37.63;21.75;;;;;;;;;;5161346;27;20053;-88
2022/10/13 07:09:07;;;;;;;32.80;21.70;;;;;;;;;;5160482;27;20501;-89
2022/10/13 07:11:33;;;;;;;40.95;22.95;;;11.00;99.90;;;;;;5160040;27;20038;-89
2022/10/13 07:13:59;;;;;;;35.28;21.42;;;;;;;;;;5160023;27;20077;-85
2022/10/13 07:16:25;;;;;;;37.58;21.00;;;;;;;;;;5142798;27;20129;-87
2022/10/13 07:18:51;;;;;;;34.38;21.15;;;10.90;99.90;;;;;;5160076;27;20101;-89
2022/10/13 07:21:17;;;;;;;40.00;21.50;;;10.90;99.90;;;;;;5159894;27;20046;-88
2022/10/13 07:23:43;;;;;;;38.50;21.80;;;;;;;;;;5142580;27;20050;-81
2022/10/13 07:26:10;;;;;;;37.95;22.23;;;;;;;;;;5159865;27;20107;-87
2022/10/13 07:28:36;;;;;;;34.63;22.00;;;;;;;;;;5160874;27;20382;-87
2022/10/13 07:31:16;;;;;;;36.63;22.30;;;11.20;99.90;;;;;;5142098;27;20038;-89
2022/10/13 07:33:44;;;;;;;39.63;21.35;;;11.20;99.90;;;;;;5142457;27;20045;-87
2022/10/13 07:36:11;;;;;;;32.80;21.50;;;11.30;99.90;;;;;;5178310;27;20501;-88
2022/10/13 07:38:37;;;;;;;39.45;22.38;;;;;;;;;;5159700;27;20045;-89
2022/10/13 07:41:05;;;;;;;36.05;22.27;;;11.10;99.90;;;;;;5178328;27;20034;-87
2022/10/13 07:43:31;;;;;;;29.63;20.38;;;11.50;99.90;;;;;;5177976;27;20371;-89
2022/10/13 07:45:59;;;;;;;32.55;19.65;;;11.30;99.90;;;;;;5177971;27;20133;-89
2022/10/13 07:48:25;;;;;;;36.70;22.60;;;11.50;99.90;;;;;;5159592;27;20046;-88
2022/10/13 07:50:51;;;;;;;35.97;20.75;;;11.60;99.90;;;;;;5179260;27;20074;-86
2022/10/13 07:53:17;;;;;;;33.25;20.98;;;11.70;99.90;;;;;;5159166;27;20042;-78
2022/10/13 07:55:43;;;;;;;37.75;22.50;;;11.50;99.90;;;;;;5178139;27;20038;-76
2022/10/13 07:58:09;;;;;;;34.72;22.33;;;;;;;;;;5159117;27;20098;-80
2022/10/13 08:00:35;;;;;;;38.08;22.48;;;11.70;99.90;;;;;;5159080;27;20489;-83
2022/10/13 08:03:01;;;;;;;38.95;21.70;;;;;;;;;;5158971;27;20046;-84
2022/10/13 08:05:27;;;;;;;35.85;20.88;;;11.90;99.90;;;;;;5159220;27;20049;-84
2022/10/13 08:07:53;;;;;;;39.30;23.58;;;;;;;;;;5141663;27;20475;-82
2022/10/13 08:10:20;;;;;;;38.70;22.00;;;12.00;99.90;;;;;;5159102;27;20175;-83
2022/10/13 08:12:45;;;;;;;32.55;22.20;;;12.00;99.90;;;;;;5159135;27;20045;-80
2022/10/13 08:15:12;;;;;;;39.83;22.55;;;;;;;;;;5158835;27;20379;-82
2022/10/13 08:17:37;;;;;;;30.40;20.80;;;11.90;99.90;;;;;;5158725;27;20478;-83
2022/10/13 08:20:04;;;;;;;37.22;22.88;;;12.10;99.90;;;;;;5158725;27;20048;-78
2022/10/13 08:22:33;;;;;;;38.35;21.85;;;;;;;;;;5158593;27;20052;-83
2022/10/13 08:25:00;;;;;;;38.33;21.35;;;12.00;99.90;;;;;;5158795;27;20121;-82
2022/10/13 08:27:26;;;;;;;36.15;22.85;;;;;;;;;;5177357;27;20039;-79
2022/10/13 08:29:53;;;;;;;32.42;20.88;;;;;;;;;;5177489;27;20098;-83
2022/10/13 08:32:22;;;;;;;37.03;23.10;;;12.20;99.90;;;;;;5158742;27;20046;-83
2022/10/13 08:34:49;;;;;;;31.65;19.67;;;12.00;99.90;;;;;;5177284;27;20042;-81
2022/10/13 08:37:16;;;;;;;40.28;22.25;;;12.30;99.90;;;;;;5141194;27;20569;-81
2022/10/13 08:39:42;;;;;;;31.25;21.45;;;12.20;99.90;;;;;;5158436;27;20133;-79
2022/10/13 08:42:17;;;;;;;36.60;21.35;;;12.30;99.90;;;;;;5141166;27;20046;-87
2022/10/13 08:45:14;;;;;;;39.05;21.33;;;12.40;99.90;;;;;;5157268;27;20056;-88
2022/10/13 08:47:48;;;;;;;33.42;22.42;;;12.30;99.90;;;;;;5139737;27;20054;-88
2022/10/13 08:50:18;;;;;;;34.20;23.65;;;12.30;99.90;;;;;;5158283;27;20047;-89
2022/10/13 08:52:59;;;;;;;38.53;21.92;;;12.70;99.90;;;;;;5177090;27;20046;-87
2022/10/13 08:55:38;;;;;;;34.97;23.30;;;12.40;99.90;;;;;;5176949;27;20042;-86
2022/10/13 08:58:13;;;;;;;41.95;23.85;;;12.30;99.90;;;;;;5158209;27;20390;-86
2022/10/13 09:00:39;;;;;;;39.17;24.48;;;;;;;;;;5158327;27;20038;-89
2022/10/13 09:03:26;;;;;;;41.60;23.67;;;12.60;99.90;;;;;;5158168;27;20130;-88
2022/10/13 09:05:57;;;;;;;37.80;23.13;;;12.60;99.90;;;;;;5176805;27;20097;-86
2022/10/13 09:08:25;;;;;;;34.33;23.27;;;12.80;99.90;;;;;;5157790;27;20130;-88
2022/10/13 09:10:52;;;;;;;40.78;23.48;;;;;;;;;;5157734;27;20034;-88
2022/10/13 09:13:19;;;;;;;39.03;22.77;;;12.50;99.90;;;;;;5140361;27;20085;-87
2022/10/13 09:15:46;;;;;;;37.30;24.10;;;12.50;99.90;;;;;;5140471;27;20042;-88
2022/10/13 09:18:13;;;;;;;34.13;22.70;;;;;;;;;;5140292;27;20130;-89
2022/10/13 09:20:39;;;;;;;35.35;23.00;;;12.80;99.90;;;;;;5157574;27;20526;-87
2022/10/13 09:23:06;;;;;;;40.28;23.42;;;;;;;;;;5140134;27;20053;-88
2022/10/13 09:25:40;;;;;;;41.22;23.23;;;12.90;99.90;;;;;;5157377;27;20129;-85
2022/10/13 09:28:27;;;;;;;36.17;23.50;;;12.90;99.90;;;;;;5157712;27;20126;-87
2022/10/13 09:31:26;;;;;;;33.45;22.60;;;12.90;99.90;;;;;;5157653;27;20042;-87
2022/10/13 09:34:08;;;;;;;31.30;21.63;;;13.00;99.90;;;;;;5157038;27;20521;-87
2022/10/13 09:36:33;;;;;;;34.63;22.88;;;12.90;99.90;;;;;;5157278;27;20090;-85
2022/10/13 09:39:15;;;;;;;37.22;22.55;;;12.50;99.90;;;;;;5140308;27;20443;-87
2022/10/13 09:41:42;;;;;;;38.63;22.00;;;;;;;;;;5176032;27;20042;-86
2022/10/13 09:44:17;;;;;;;34.47;21.90;;;13.00;99.90;;;;;;5175527;27;20054;-83
2022/10/13 09:46:54;;;;;;;39.42;22.95;;;13.10;99.90;;;;;;5157220;27;20129;-84
2022/10/13 09:49:38;;;;;;;36.85;21.25;;;13.10;99.90;;;;;;5175726;27;20553;-85
2022/10/13 09:52:05;;;;;;;;;;;13.10;99.90;;;;;;5157767;27;20578;-85
2022/10/13 09:54:34;;;;;;;29.88;20.98;;;12.90;99.90;;;;;;5156887;27;19926;-82
2022/10/13 09:57:04;;;;;;;39.47;22.58;;;13.00;99.90;;;;;;5176263;27;20042;-80
2022/10/13 09:59:34;;;;;;;36.33;21.95;;;13.10;99.90;;;;;;5175991;27;20045;-78
2022/10/13 10:02:37;;;;;;;34.50;20.85;;;13.30;99.90;;;;;;5156976;27;20510;-80
2022/10/13 10:05:22;;;;;;;35.92;21.60;;;13.30;99.90;;;;;;5157372;27;20046;-84
2022/10/13 10:07:48;;;;;;;33.97;20.25;;;13.10;99.90;;;;;;5175891;27;20039;-78
2022/10/13 10:10:33;;;;;;;32.95;20.85;;;13.30;99.90;;;;;;5175931;27;20045;-78
2022/10/13 10:13:00;;;;;;;31.85;21.38;;;13.30;99.90;;;;;;5175537;27;20041;-86
2022/10/13 10:15:50;;;;;;;32.00;20.90;;;13.40;99.90;;;;;;5157225;27;20042;-79
2022/10/13 10:18:22;;;;;;;32.30;21.52;;;13.40;99.90;;;;;;5156896;27;20043;-78
2022/10/13 10:21:01;;;;;;;27.50;19.60;;;13.50;99.90;;;;;;5158251;27;20046;-80
2022/10/13 10:23:40;;;;;;;32.53;20.48;;;13.40;99.90;;;;;;5176003;27;20050;-80
2022/10/13 10:26:49;;;;;;;33.20;20.67;;;13.50;99.90;;;;;;5156837;27;20084;-89
2022/10/13 10:29:25;;;;;;;26.90;19.52;;;13.30;99.90;;;;;;5054290;28;20492;-87
2022/10/13 10:32:18;;;;;;;29.75;19.77;;;13.60;99.90;;;;;;5053974;28;20084;-89
2022/10/13 10:35:09;;;;;;;27.20;18.58;;;13.60;99.90;;;;;;5054345;28;20462;-87
2022/10/13 10:37:56;;;;;;;32.63;18.08;;;13.80;99.90;;;;;;5054166;28;20544;-89
2022/10/13 10:40:30;;;;;;;27.80;19.65;;;13.30;99.90;;;;;;5037600;28;20064;-90
2022/10/13 10:43:23;;;;;;;28.15;17.92;;;13.80;99.90;;;;;;5037058;28;20059;-89
2022/10/13 10:45:48;;;;;;;31.45;18.42;;;13.30;99.90;;;;;;5053813;28;20078;-89
2022/10/13 10:48:24;;;;;;;28.58;20.30;;;13.70;99.90;;;;;;5054036;28;20049;-90
2022/10/13 10:50:52;;;;;;;30.15;19.27;;;14.00;99.90;;;;;;5054195;28;20477;-89
2022/10/13 10:53:35;;;;;;;30.58;19.80;;;13.80;99.90;;;;;;5037567;28;20102;-90
2022/10/13 10:56:08;;;;;;;29.02;20.80;;;13.80;99.90;;;;;;5053960;28;20049;-90
2022/10/13 10:58:54;;;;;;;28.42;19.85;;;13.90;99.90;;;;;;5054043;28;20048;-89
2022/10/13 11:01:37;;;;;;;26.33;18.95;;;13.60;99.90;;;;;;5139603;27;20078;-88
2022/10/13 11:04:12;;;;;;;30.02;18.95;;;13.90;99.90;;;;;;5156523;27;20097;-89
2022/10/13 11:06:38;;;;;;;30.65;20.00;;;14.00;99.90;;;;;;5140139;27;20406;-89
2022/10/13 11:09:04;;;;;;;27.98;19.77;;;13.90;99.90;;;;;;5143224;27;20042;-89
2022/10/13 11:11:33;;;;;;;28.08;19.92;;;13.80;99.90;;;;;;5142790;27;20076;-89
2022/10/13 11:14:05;;;;;;;29.65;19.75;;;14.00;99.90;;;;;;5160340;27;20508;-88
2022/10/13 11:16:35;;;;;;;25.02;18.90;;;14.10;99.90;;;;;;5142961;27;20125;-88
2022/10/13 11:19:07;;;;;;;27.70;18.67;;;;;;;;;;5159987;27;20504;-89
2022/10/13 11:21:51;;;;;;;25.90;17.98;;;14.00;99.90;;;;;;5159987;27;20081;-79
2022/10/13 11:24:33;;;;;;;28.63;18.63;;;;;;;;;;5159809;27;20092;-85
2022/10/13 11:27:11;;;;;;;27.05;18.63;;;;;;;;;;5142404;27;20038;-85
2022/10/13 11:29:43;;;;;;;24.20;17.52;;;;;;;;;;5159798;27;20046;-85
2022/10/13 11:32:29;;;;;;;24.25;16.95;;;14.10;99.90;;;;;;5142558;27;20394;-85
2022/10/13 11:35:12;;;;;;;27.13;18.40;;;14.00;99.90;;;;;;5142409;27;20478;-84
2022/10/13 11:37:56;;;;;;;23.43;17.13;;;14.50;99.90;;;;;;5142559;27;20125;-85
2022/10/13 11:40:37;;;;;;;24.95;17.00;;;14.30;99.90;;;;;;5161284;27;20719;-80
2022/10/13 11:43:24;;;;;;;24.75;15.85;;;14.40;99.90;;;;;;5178020;27;20405;-83
2022/10/13 11:46:03;;;;;;;20.25;15.32;;;14.40;99.90;;;;;;5159340;27;20046;-84
2022/10/13 11:48:49;;;;;;;22.08;14.73;;;14.30;99.90;;;;;;5159833;27;20120;-82
2022/10/13 11:51:28;;;;;;;24.27;15.30;;;14.70;99.90;;;;;;5178264;27;20130;-82
2022/10/13 11:54:02;;;;;;;20.88;14.40;;;14.50;99.90;;;;;;5142030;27;20089;-83
2022/10/13 11:56:43;;;;;;;21.35;15.10;;;14.50;99.90;;;;;;5159471;27;20427;-82
2022/10/13 11:59:32;;;;;;;19.45;14.07;;;14.40;99.90;;;;;;5159409;27;20102;-81
2022/10/13 12:02:12;;;;;;;18.70;12.63;;;14.60;99.90;;;;;;5159069;27;20504;-77
2022/10/13 12:04:39;;;;;;;18.75;13.55;;;14.20;99.90;;;;;;5141892;27;20393;-84
2022/10/13 12:07:08;;;;;;;20.42;11.85;;;14.70;99.90;;;;;;5141984;27;20461;-78
2022/10/13 12:09:57;;;;;;;17.15;13.57;;;14.90;99.90;;;;;;5158939;27;20050;-79
2022/10/13 12:12:24;;;;;;;16.77;10.35;;;14.70;99.90;;;;;;5158409;27;20054;-79
2022/10/13 12:14:55;;;;;;;15.70;10.80;;;14.80;99.90;;;;;;5158817;27;20046;-83
2022/10/13 12:17:30;;;;;;;16.80;12.00;;;14.70;99.90;;;;;;5158675;27;20074;-84
2022/10/13 12:19:59;;;;;;;17.67;11.80;;;14.90;99.90;;;;;;5141723;27;20363;-82
2022/10/13 12:22:25;;;;;;;15.75;11.38;;;;;;;;;;5141303;27;20130;-80
2022/10/13 12:25:03;;;;;;;13.80;10.85;;;14.70;99.90;;;;;;5158668;27;20053;-89
2022/10/13 12:27:31;;;;;;;14.57;10.63;;;14.70;99.90;;;;;;5177680;27;20038;-87
2022/10/13 12:29:58;;;;;;;17.70;11.05;;;14.80;99.90;;;;;;5177712;27;20121;-89
2022/10/13 12:32:27;;;;;;;16.83;10.85;;;14.80;99.90;;;;;;5177528;27;20402;-86
2022/10/13 12:34:53;;;;;;;14.77;10.05;;;;;;;;;;5177604;27;20042;-82
2022/10/13 12:37:29;;;;;;;13.10;9.65;;;14.70;99.90;;;;;;5177430;27;20089;-79
2022/10/13 12:39:57;;;;;;;15.20;9.80;;;14.80;99.90;;;;;;5177572;27;20042;-79
2022/10/13 12:42:30;;;;;;;12.88;9.20;;;;;;;;;;5177138;27;20046;-88
2022/10/13 12:44:58;;;;;;;15.07;9.25;;;14.80;99.90;;;;;;5177152;27;20057;-84
2022/10/13 12:47:46;;;;;;;17.05;9.88;;;14.80;99.90;;;;;;5140902;27;20413;-85
2022/10/13 12:50:21;;;;;;;12.18;9.52;;;14.90;99.90;;;;;;5141297;27;20424;-83
2022/10/13 12:52:47;;;;;;;13.93;9.00;;;14.80;99.90;;;;;;5158251;27;20042;-85
2022/10/13 12:55:16;;;;;;;11.90;9.20;;;15.00;99.90;;;;;;5158278;27;20094;-88
2022/10/13 12:57:44;;;;;;;14.93;8.35;;;14.90;99.90;;;;;;5140882;27;20057;-89
2022/10/13 13:00:16;;;;;;;13.20;8.90;;;;;;;;;;5176955;27;20042;-83
2022/10/13 13:02:50;;;;;;;9.82;7.53;;;14.80;99.90;;;;;;5158198;27;20042;-82
2022/10/13 13:05:29;;;;;;;11.93;8.07;;;15.00;99.90;;;;;;5176562;27;20605;-82
2022/10/13 13:07:55;;;;;;;11.00;7.20;;;15.00;99.90;;;;;;5176725;27;20116;-80
2022/10/13 13:10:20;;;;;;;11.48;7.65;;;15.00;99.90;;;;;;5158072;27;20538;-78
2022/10/13 13:12:48;;;;;;;13.35;7.07;;;15.20;99.90;;;;;;5157677;27;20422;-78
2022/10/13 13:15:20;;;;;;;10.85;7.88;;;15.20;99.90;;;;;;5176612;27;20048;-83
2022/10/13 13:17:46;;;;;;;11.82;8.55;;;;;;;;;;5176564;27;20039;-79
2022/10/13 13:20:25;;;;;;;13.15;7.90;;;14.90;99.90;;;;;;5158896;27;20401;-84
2022/10/13 13:22:52;;;;;;;11.43;7.32;;;;;;;;;;5176384;27;20053;-80
2022/10/13 13:25:18;;;;;;;14.48;8.75;;;15.00;99.90;;;;;;5176030;27;20042;-82
2022/10/13 13:27:43;;;;;;;10.88;7.95;;;15.10;99.90;;;;;;5176456;27;20086;-80